AMX303 MMAA-MMMX
Flight info
| Callsign | AMX303 |
|---|---|
| Flight time | 0h 36m |
| Altitude | 28000 |
| Route | ALNUS1B ALNUS UT117 ESPOS ESPOS3A |
| Aircraft | B738/M-SDE2E3FGHIRWXY/LB1 |
Departure
| Time | 2026-05-06 07:20 |
|---|---|
| Airport | General Juan N. Álvarez International Airport (MMAA) |
Arrival
| Time | 2026-05-06 07:56 |
|---|---|
| Airport | Mexico City Benito Juárez International Airport (MMMX) |
| Time | Latitude | Longitude | Altitude | Speed | Heading |
|---|---|---|---|---|---|
| 2026-05-06 07:10 | 16.76059 | -99.75513 | 16 ft | 2 kts | 18° |
| 2026-05-06 07:10 | 16.76043 | -99.75519 | 19 ft | 3 kts | 35° |
| 2026-05-06 07:11 | 16.76032 | -99.75532 | 20 ft | 3 kts | 84° |
| 2026-05-06 07:11 | 16.76034 | -99.75551 | 16 ft | 2 kts | 109° |
| 2026-05-06 07:11 | 16.76037 | -99.75560 | 16 ft | 1 kts | 109° |
| 2026-05-06 07:11 | 16.76038 | -99.75561 | 19 ft | 0 kts | 109° |
| 2026-05-06 07:13 | 16.76035 | -99.75552 | 16 ft | 3 kts | 109° |
| 2026-05-06 07:13 | 16.76025 | -99.75521 | 18 ft | 7 kts | 108° |
| 2026-05-06 07:14 | 16.76002 | -99.75448 | 18 ft | 14 kts | 109° |
| 2026-05-06 07:14 | 16.75937 | -99.75374 | 17 ft | 14 kts | 139° |
| 2026-05-06 07:14 | 16.75883 | -99.75296 | 17 ft | 13 kts | 109° |
| 2026-05-06 07:14 | 16.75855 | -99.75206 | 18 ft | 13 kts | 108° |
| 2026-05-06 07:15 | 16.75825 | -99.75113 | 18 ft | 14 kts | 107° |
| 2026-05-06 07:15 | 16.75792 | -99.75001 | 16 ft | 18 kts | 106° |
| 2026-05-06 07:15 | 16.75750 | -99.74869 | 16 ft | 19 kts | 107° |
| 2026-05-06 07:15 | 16.75708 | -99.74737 | 17 ft | 19 kts | 108° |
| 2026-05-06 07:16 | 16.75668 | -99.74609 | 17 ft | 18 kts | 108° |
| 2026-05-06 07:16 | 16.75641 | -99.74527 | 18 ft | 18 kts | 108° |
| 2026-05-06 07:16 | 16.75603 | -99.74406 | 16 ft | 17 kts | 108° |
| 2026-05-06 07:16 | 16.75567 | -99.74289 | 18 ft | 17 kts | 108° |
| 2026-05-06 07:17 | 16.75529 | -99.74168 | 16 ft | 18 kts | 108° |
| 2026-05-06 07:17 | 16.75472 | -99.73986 | 16 ft | 21 kts | 108° |
| 2026-05-06 07:17 | 16.75441 | -99.73886 | 18 ft | 23 kts | 108° |
| 2026-05-06 07:17 | 16.75389 | -99.73722 | 16 ft | 25 kts | 108° |
| 2026-05-06 07:18 | 16.75334 | -99.73544 | 17 ft | 27 kts | 108° |
| 2026-05-06 07:18 | 16.75276 | -99.73365 | 16 ft | 18 kts | 113° |
| 2026-05-06 07:18 | 16.75186 | -99.73339 | 17 ft | 15 kts | 197° |
| 2026-05-06 07:18 | 16.75101 | -99.73386 | 18 ft | 14 kts | 248° |
| 2026-05-06 07:19 | 16.75126 | -99.73515 | 17 ft | 25 kts | 288° |
| 2026-05-06 07:19 | 16.75202 | -99.73755 | 17 ft | 60 kts | 288° |
| 2026-05-06 07:19 | 16.75418 | -99.74447 | 19 ft | 138 kts | 288° |
| 2026-05-06 07:19 | 16.75784 | -99.75602 | 192 ft | 186 kts | 287° |
| 2026-05-06 07:20 | 16.76146 | -99.76864 | 1226 ft | 177 kts | 286° |
| 2026-05-06 07:20 | 16.76525 | -99.78083 | 2175 ft | 180 kts | 287° |
| 2026-05-06 07:20 | 16.76951 | -99.79415 | 2503 ft | 207 kts | 287° |
| 2026-05-06 07:20 | 16.77433 | -99.80934 | 2689 ft | 233 kts | 287° |
| 2026-05-06 07:21 | 16.77969 | -99.82604 | 2981 ft | 256 kts | 288° |
| 2026-05-06 07:21 | 16.78545 | -99.84396 | 3670 ft | 263 kts | 287° |
| 2026-05-06 07:21 | 16.79258 | -99.86163 | 4445 ft | 268 kts | 305° |
| 2026-05-06 07:21 | 16.80736 | -99.87348 | 5161 ft | 274 kts | 339° |
| 2026-05-06 07:22 | 16.82585 | -99.87703 | 6075 ft | 273 kts | 359° |
| 2026-05-06 07:22 | 16.84484 | -99.87548 | 6810 ft | 277 kts | 5° |
| 2026-05-06 07:22 | 16.86411 | -99.87281 | 7516 ft | 279 kts | 7° |
| 2026-05-06 07:22 | 16.88337 | -99.86991 | 8315 ft | 280 kts | 8° |
| 2026-05-06 07:23 | 16.90280 | -99.86700 | 9004 ft | 286 kts | 8° |
| 2026-05-06 07:23 | 16.92265 | -99.86409 | 9781 ft | 286 kts | 8° |
| 2026-05-06 07:23 | 16.94252 | -99.86123 | 10379 ft | 294 kts | 8° |
| 2026-05-06 07:23 | 16.96359 | -99.85824 | 10560 ft | 317 kts | 8° |
| 2026-05-06 07:24 | 16.98599 | -99.85511 | 10771 ft | 336 kts | 9° |
| 2026-05-06 07:24 | 17.00945 | -99.85187 | 11220 ft | 344 kts | 8° |
| 2026-05-06 07:24 | 17.03337 | -99.84861 | 11833 ft | 348 kts | 8° |
| 2026-05-06 07:24 | 17.05751 | -99.84532 | 12449 ft | 352 kts | 8° |
| 2026-05-06 07:25 | 17.08199 | -99.84199 | 13081 ft | 356 kts | 9° |
| 2026-05-06 07:25 | 17.10670 | -99.83863 | 13766 ft | 360 kts | 9° |
| 2026-05-06 07:25 | 17.13166 | -99.83524 | 14336 ft | 364 kts | 9° |
| 2026-05-06 07:25 | 17.15693 | -99.83180 | 14897 ft | 368 kts | 9° |
| 2026-05-06 07:26 | 17.18245 | -99.82833 | 15479 ft | 372 kts | 9° |
| 2026-05-06 07:26 | 17.20796 | -99.82486 | 16042 ft | 375 kts | 9° |
| 2026-05-06 07:26 | 17.23399 | -99.82136 | 16616 ft | 378 kts | 10° |
| 2026-05-06 07:26 | 17.26024 | -99.81779 | 17165 ft | 383 kts | 10° |
| 2026-05-06 07:27 | 17.28647 | -99.81419 | 17739 ft | 388 kts | 10° |
| 2026-05-06 07:27 | 17.31340 | -99.81050 | 18276 ft | 392 kts | 10° |
| 2026-05-06 07:27 | 17.34055 | -99.80680 | 18775 ft | 395 kts | 10° |
| 2026-05-06 07:27 | 17.36800 | -99.80302 | 19260 ft | 399 kts | 10° |
| 2026-05-06 07:28 | 17.39551 | -99.79928 | 19868 ft | 398 kts | 10° |
| 2026-05-06 07:28 | 17.42304 | -99.79555 | 20369 ft | 401 kts | 10° |
| 2026-05-06 07:28 | 17.47888 | -99.78793 | 21300 ft | 408 kts | 10° |
| 2026-05-06 07:29 | 17.50707 | -99.78407 | 21761 ft | 410 kts | 10° |
| 2026-05-06 07:29 | 17.53550 | -99.78018 | 22289 ft | 412 kts | 10° |
| 2026-05-06 07:29 | 17.56401 | -99.77630 | 22753 ft | 415 kts | 9° |
| 2026-05-06 07:29 | 17.59271 | -99.77251 | 23171 ft | 417 kts | 7° |
| 2026-05-06 07:30 | 17.62191 | -99.77169 | 23574 ft | 423 kts | 1° |
| 2026-05-06 07:30 | 17.65136 | -99.77250 | 23890 ft | 426 kts | 0° |
| 2026-05-06 07:30 | 17.68104 | -99.77355 | 24260 ft | 426 kts | 0° |
| 2026-05-06 07:30 | 17.71059 | -99.77448 | 24793 ft | 424 kts | 0° |
| 2026-05-06 07:31 | 17.74000 | -99.77521 | 25288 ft | 423 kts | 1° |
| 2026-05-06 07:31 | 17.76945 | -99.77585 | 25742 ft | 424 kts | 1° |
| 2026-05-06 07:31 | 17.79907 | -99.77656 | 26184 ft | 425 kts | 360° |
| 2026-05-06 07:31 | 17.82858 | -99.77792 | 26679 ft | 424 kts | 359° |
| 2026-05-06 07:32 | 17.85815 | -99.77963 | 27157 ft | 424 kts | 358° |
| 2026-05-06 07:32 | 17.88763 | -99.78142 | 27625 ft | 425 kts | 358° |
| 2026-05-06 07:32 | 17.91717 | -99.78320 | 27851 ft | 428 kts | 358° |
| 2026-05-06 07:32 | 17.94709 | -99.78492 | 27861 ft | 429 kts | 358° |
| 2026-05-06 07:33 | 17.97650 | -99.78655 | 27845 ft | 427 kts | 358° |
| 2026-05-06 07:33 | 18.00603 | -99.78817 | 27861 ft | 424 kts | 358° |
| 2026-05-06 07:33 | 18.03558 | -99.78977 | 27856 ft | 424 kts | 358° |
| 2026-05-06 07:33 | 18.06505 | -99.79134 | 27866 ft | 424 kts | 358° |
| 2026-05-06 07:34 | 18.09454 | -99.79291 | 27869 ft | 424 kts | 358° |
| 2026-05-06 07:34 | 18.12396 | -99.79449 | 27859 ft | 424 kts | 358° |
| 2026-05-06 07:34 | 18.15350 | -99.79606 | 27862 ft | 424 kts | 358° |
| 2026-05-06 07:34 | 18.18296 | -99.79764 | 27861 ft | 424 kts | 358° |
| 2026-05-06 07:35 | 18.21243 | -99.79922 | 27852 ft | 424 kts | 358° |
| 2026-05-06 07:35 | 18.24181 | -99.80079 | 27846 ft | 424 kts | 358° |
| 2026-05-06 07:35 | 18.27132 | -99.80237 | 27857 ft | 424 kts | 358° |
| 2026-05-06 07:35 | 18.30078 | -99.80395 | 27850 ft | 424 kts | 358° |
| 2026-05-06 07:36 | 18.33022 | -99.80553 | 27858 ft | 424 kts | 358° |
| 2026-05-06 07:36 | 18.35971 | -99.80711 | 27853 ft | 424 kts | 358° |
| 2026-05-06 07:36 | 18.38915 | -99.80869 | 27853 ft | 424 kts | 358° |
| 2026-05-06 07:36 | 18.41871 | -99.81028 | 27855 ft | 425 kts | 358° |
| 2026-05-06 07:37 | 18.44826 | -99.81186 | 27861 ft | 425 kts | 358° |
| 2026-05-06 07:37 | 18.47780 | -99.81345 | 27864 ft | 425 kts | 358° |
| 2026-05-06 07:37 | 18.50738 | -99.81503 | 27855 ft | 425 kts | 358° |
| 2026-05-06 07:37 | 18.53659 | -99.81660 | 27856 ft | 425 kts | 358° |
| 2026-05-06 07:38 | 18.56593 | -99.81817 | 27849 ft | 418 kts | 358° |
| 2026-05-06 07:38 | 18.59488 | -99.81972 | 27559 ft | 414 kts | 358° |
| 2026-05-06 07:38 | 18.62336 | -99.82125 | 27258 ft | 409 kts | 358° |
| 2026-05-06 07:38 | 18.65171 | -99.82277 | 26865 ft | 406 kts | 358° |
| 2026-05-06 07:39 | 18.67982 | -99.82406 | 26490 ft | 403 kts | 2° |
| 2026-05-06 07:39 | 18.70698 | -99.81863 | 26078 ft | 396 kts | 24° |
| 2026-05-06 07:39 | 18.73026 | -99.80414 | 25737 ft | 387 kts | 42° |
| 2026-05-06 07:39 | 18.74855 | -99.78378 | 25396 ft | 380 kts | 57° |
| 2026-05-06 07:40 | 18.76107 | -99.75944 | 25034 ft | 374 kts | 66° |
| 2026-05-06 07:40 | 18.77170 | -99.73443 | 24657 ft | 373 kts | 67° |
| 2026-05-06 07:40 | 18.78197 | -99.70936 | 24321 ft | 370 kts | 68° |
| 2026-05-06 07:40 | 18.79216 | -99.68449 | 23950 ft | 368 kts | 67° |
| 2026-05-06 07:41 | 18.80236 | -99.65982 | 23601 ft | 366 kts | 67° |
| 2026-05-06 07:41 | 18.81258 | -99.63533 | 23206 ft | 364 kts | 67° |
| 2026-05-06 07:41 | 18.82278 | -99.61105 | 22847 ft | 360 kts | 67° |
| 2026-05-06 07:41 | 18.83293 | -99.58698 | 22489 ft | 357 kts | 67° |
| 2026-05-06 07:42 | 18.84298 | -99.56319 | 22141 ft | 353 kts | 67° |
| 2026-05-06 07:42 | 18.85293 | -99.53968 | 21813 ft | 350 kts | 67° |
| 2026-05-06 07:42 | 18.86282 | -99.51625 | 21466 ft | 347 kts | 67° |
| 2026-05-06 07:42 | 18.87262 | -99.49304 | 21029 ft | 348 kts | 67° |
| 2026-05-06 07:43 | 18.88252 | -99.46958 | 20583 ft | 350 kts | 67° |
| 2026-05-06 07:43 | 18.89237 | -99.44622 | 20239 ft | 347 kts | 67° |
| 2026-05-06 07:43 | 18.90199 | -99.42341 | 20006 ft | 341 kts | 67° |
| 2026-05-06 07:43 | 18.91155 | -99.40077 | 19774 ft | 335 kts | 67° |
| 2026-05-06 07:44 | 18.92102 | -99.37837 | 19534 ft | 330 kts | 68° |
| 2026-05-06 07:44 | 18.93027 | -99.35639 | 19554 ft | 326 kts | 68° |
| 2026-05-06 07:44 | 18.93944 | -99.33464 | 19333 ft | 322 kts | 68° |
| 2026-05-06 07:44 | 18.94848 | -99.31324 | 19107 ft | 318 kts | 68° |
| 2026-05-06 07:45 | 18.95870 | -99.29267 | 18868 ft | 317 kts | 57° |
| 2026-05-06 07:45 | 18.97233 | -99.27455 | 18542 ft | 316 kts | 53° |
| 2026-05-06 07:45 | 18.98659 | -99.25678 | 17827 ft | 315 kts | 52° |
| 2026-05-06 07:45 | 19.00073 | -99.23921 | 17409 ft | 312 kts | 52° |
| 2026-05-06 07:46 | 19.01466 | -99.22176 | 16976 ft | 309 kts | 52° |
| 2026-05-06 07:46 | 19.02838 | -99.20438 | 16603 ft | 307 kts | 52° |
| 2026-05-06 07:46 | 19.04187 | -99.18717 | 16269 ft | 302 kts | 52° |
| 2026-05-06 07:46 | 19.05511 | -99.17020 | 15985 ft | 296 kts | 52° |
| 2026-05-06 07:47 | 19.06817 | -99.15343 | 15696 ft | 294 kts | 52° |
| 2026-05-06 07:47 | 19.08113 | -99.13674 | 15430 ft | 292 kts | 52° |
| 2026-05-06 07:47 | 19.09395 | -99.12021 | 15235 ft | 289 kts | 52° |
| 2026-05-06 07:47 | 19.10653 | -99.10399 | 15006 ft | 282 kts | 52° |
| 2026-05-06 07:48 | 19.11870 | -99.08831 | 14783 ft | 276 kts | 52° |
| 2026-05-06 07:48 | 19.13073 | -99.07280 | 14573 ft | 269 kts | 51° |
| 2026-05-06 07:48 | 19.14246 | -99.05768 | 14365 ft | 263 kts | 51° |
| 2026-05-06 07:48 | 19.15404 | -99.04300 | 14151 ft | 258 kts | 46° |
| 2026-05-06 07:49 | 19.16896 | -99.03300 | 13920 ft | 256 kts | 17° |
| 2026-05-06 07:49 | 19.18662 | -99.03170 | 13652 ft | 259 kts | 353° |
| 2026-05-06 07:49 | 19.20374 | -99.03835 | 13360 ft | 264 kts | 328° |
| 2026-05-06 07:49 | 19.21745 | -99.05056 | 13342 ft | 251 kts | 318° |
| 2026-05-06 07:50 | 19.22973 | -99.06292 | 13315 ft | 237 kts | 318° |
| 2026-05-06 07:50 | 19.24159 | -99.07495 | 13330 ft | 236 kts | 316° |
| 2026-05-06 07:50 | 19.25230 | -99.08836 | 13201 ft | 243 kts | 308° |
| 2026-05-06 07:50 | 19.26232 | -99.10264 | 12884 ft | 239 kts | 306° |
| 2026-05-06 07:51 | 19.27206 | -99.11661 | 12591 ft | 231 kts | 307° |
| 2026-05-06 07:51 | 19.28139 | -99.12981 | 12301 ft | 221 kts | 307° |
| 2026-05-06 07:51 | 19.29036 | -99.14234 | 11970 ft | 214 kts | 308° |
| 2026-05-06 07:51 | 19.29925 | -99.15468 | 11669 ft | 207 kts | 308° |
| 2026-05-06 07:52 | 19.30758 | -99.16622 | 11548 ft | 186 kts | 308° |
| 2026-05-06 07:52 | 19.31516 | -99.17676 | 11166 ft | 183 kts | 309° |
| 2026-05-06 07:52 | 19.32372 | -99.18644 | 10656 ft | 185 kts | 325° |
| 2026-05-06 07:52 | 19.33498 | -99.19212 | 10298 ft | 176 kts | 348° |
| 2026-05-06 07:53 | 19.34691 | -99.19362 | 9876 ft | 171 kts | 5° |
| 2026-05-06 07:53 | 19.35804 | -99.19128 | 9680 ft | 160 kts | 21° |
| 2026-05-06 07:53 | 19.36820 | -99.18543 | 9529 ft | 170 kts | 39° |
| 2026-05-06 07:53 | 19.37632 | -99.17629 | 9397 ft | 171 kts | 56° |
| 2026-05-06 07:54 | 19.38240 | -99.16596 | 9257 ft | 172 kts | 59° |
| 2026-05-06 07:54 | 19.38852 | -99.15497 | 9022 ft | 176 kts | 59° |
| 2026-05-06 07:54 | 19.39454 | -99.14409 | 8641 ft | 168 kts | 60° |
| 2026-05-06 07:54 | 19.40036 | -99.13355 | 8319 ft | 164 kts | 59° |
| 2026-05-06 07:55 | 19.40595 | -99.12336 | 8122 ft | 159 kts | 62° |
| 2026-05-06 07:55 | 19.41166 | -99.11296 | 7906 ft | 166 kts | 57° |
| 2026-05-06 07:55 | 19.41771 | -99.10243 | 7707 ft | 168 kts | 59° |
| 2026-05-06 07:55 | 19.42367 | -99.09175 | 7509 ft | 170 kts | 59° |
| 2026-05-06 07:56 | 19.42968 | -99.08104 | 7323 ft | 166 kts | 59° |
| 2026-05-06 07:56 | 19.43516 | -99.07131 | 7301 ft | 133 kts | 59° |
| 2026-05-06 07:56 | 19.43880 | -99.06478 | 7302 ft | 72 kts | 59° |
| 2026-05-06 07:56 | 19.44030 | -99.06215 | 7300 ft | 19 kts | 59° |
| 2026-05-06 07:57 | 19.44107 | -99.06077 | 7300 ft | 23 kts | 59° |
| 2026-05-06 07:57 | 19.44191 | -99.05927 | 7300 ft | 24 kts | 59° |
| 2026-05-06 07:57 | 19.44182 | -99.05842 | 7302 ft | 10 kts | 161° |
| 2026-05-06 07:57 | 19.44105 | -99.05838 | 7302 ft | 15 kts | 185° |
| 2026-05-06 07:58 | 19.44021 | -99.05894 | 7302 ft | 14 kts | 232° |
| 2026-05-06 07:58 | 19.43969 | -99.05981 | 7302 ft | 14 kts | 239° |
| 2026-05-06 07:58 | 19.43921 | -99.06067 | 7302 ft | 13 kts | 239° |
| 2026-05-06 07:58 | 19.43877 | -99.06146 | 7302 ft | 13 kts | 239° |
| 2026-05-06 07:59 | 19.43827 | -99.06236 | 7302 ft | 15 kts | 239° |
| 2026-05-06 07:59 | 19.43769 | -99.06340 | 7302 ft | 17 kts | 239° |
| 2026-05-06 07:59 | 19.43704 | -99.06457 | 7302 ft | 19 kts | 239° |
| 2026-05-06 07:59 | 19.43633 | -99.06585 | 7302 ft | 21 kts | 239° |
| 2026-05-06 08:00 | 19.43548 | -99.06703 | 7302 ft | 20 kts | 212° |
| 2026-05-06 08:00 | 19.43431 | -99.06782 | 7302 ft | 18 kts | 232° |
| 2026-05-06 08:00 | 19.43389 | -99.06888 | 7302 ft | 16 kts | 239° |
| 2026-05-06 08:00 | 19.43332 | -99.06989 | 7302 ft | 18 kts | 239° |
| 2026-05-06 08:01 | 19.43270 | -99.07107 | 7302 ft | 18 kts | 254° |
| 2026-05-06 08:01 | 19.43251 | -99.07246 | 7302 ft | 20 kts | 252° |
| 2026-05-06 08:01 | 19.43186 | -99.07371 | 7302 ft | 21 kts | 239° |
| 2026-05-06 08:01 | 19.43106 | -99.07507 | 7302 ft | 22 kts | 248° |
| 2026-05-06 08:02 | 19.43031 | -99.07645 | 7302 ft | 21 kts | 240° |
| 2026-05-06 08:02 | 19.42953 | -99.07761 | 7302 ft | 15 kts | 224° |
| 2026-05-06 08:02 | 19.42877 | -99.07827 | 7302 ft | 14 kts | 210° |
| 2026-05-06 08:02 | 19.42796 | -99.07874 | 7302 ft | 13 kts | 207° |
| 2026-05-06 08:03 | 19.42714 | -99.07863 | 7302 ft | 10 kts | 176° |
| 2026-05-06 08:03 | 19.42672 | -99.07904 | 7302 ft | 8 kts | 238° |
| 2026-05-06 08:03 | 19.42641 | -99.07957 | 7302 ft | 9 kts | 238° |
| 2026-05-06 08:03 | 19.42607 | -99.08019 | 7302 ft | 11 kts | 239° |
| 2026-05-06 08:04 | 19.42565 | -99.08094 | 7302 ft | 13 kts | 239° |
| 2026-05-06 08:04 | 19.42516 | -99.08178 | 7302 ft | 14 kts | 240° |
| 2026-05-06 08:04 | 19.42450 | -99.08243 | 7302 ft | 14 kts | 164° |
| 2026-05-06 08:04 | 19.42394 | -99.08212 | 7302 ft | 13 kts | 154° |
| 2026-05-06 08:05 | 19.42305 | -99.08201 | 7302 ft | 13 kts | 183° |
| 2026-05-06 08:05 | 19.42217 | -99.08196 | 7302 ft | 13 kts | 149° |
| 2026-05-06 08:05 | 19.42169 | -99.08121 | 7302 ft | 12 kts | 121° |
| 2026-05-06 08:05 | 19.42127 | -99.08059 | 7302 ft | 8 kts | 153° |
| 2026-05-06 08:06 | 19.42105 | -99.08063 | 7302 ft | 2 kts | 202° |
| 2026-05-06 08:06 | 19.42092 | -99.08071 | 7302 ft | 0 kts | 211° |